createdAt,value
2017-06-28T00:00:03.194Z,0
2017-06-28T00:01:02.559Z,0
2017-06-28T00:02:03.515Z,0
2017-06-28T00:03:03.174Z,0
2017-06-28T00:04:03.471Z,0
2017-06-28T00:05:02.831Z,0
2017-06-28T00:06:02.827Z,0
2017-06-28T00:07:03.123Z,0
2017-06-28T00:08:02.802Z,0
2017-06-28T00:09:03.107Z,0
2017-06-28T00:10:03.112Z,0
2017-06-28T00:11:03.398Z,0
2017-06-28T00:12:03.083Z,0
2017-06-28T00:13:03.076Z,0
2017-06-28T00:14:02.807Z,0
2017-06-28T00:15:03.366Z,0
2017-06-28T00:16:03.358Z,0
2017-06-28T00:17:03.031Z,0
2017-06-28T00:18:03.340Z,0
2017-06-28T00:19:03.066Z,0
2017-06-28T00:20:03.319Z,0
2017-06-28T00:21:02.685Z,0
2017-06-28T00:22:03.299Z,0
2017-06-28T00:23:03.286Z,0
2017-06-28T00:24:03.292Z,0
2017-06-28T00:25:03.352Z,0
2017-06-28T00:26:02.998Z,0
2017-06-28T00:27:02.631Z,0
2017-06-28T00:28:02.622Z,0
2017-06-28T00:29:03.231Z,0
2017-06-28T00:30:03.223Z,0
2017-06-28T00:31:02.899Z,0
2017-06-28T00:32:02.899Z,0
2017-06-28T00:33:02.890Z,0
2017-06-28T00:34:02.587Z,0
2017-06-28T00:35:03.175Z,0
2017-06-28T00:36:02.541Z,0
2017-06-28T00:37:02.844Z,0
2017-06-28T00:38:02.838Z,0
2017-06-28T00:39:03.143Z,0
2017-06-28T00:40:03.136Z,0
2017-06-28T00:41:02.539Z,0
2017-06-28T00:42:02.494Z,0
2017-06-28T00:43:02.790Z,0
2017-06-28T00:44:02.471Z,0
2017-06-28T00:45:03.089Z,0
2017-06-28T00:46:02.446Z,0
2017-06-28T00:47:02.442Z,0
2017-06-28T00:48:02.744Z,0
2017-06-28T00:49:02.104Z,0
2017-06-28T00:50:03.039Z,0
2017-06-28T00:51:02.085Z,0
2017-06-28T00:52:02.705Z,0
2017-06-28T00:53:03.062Z,0
2017-06-28T00:54:02.684Z,0
2017-06-28T00:55:02.724Z,0
2017-06-28T00:56:02.662Z,0
2017-06-28T00:57:02.654Z,0
2017-06-28T00:58:03.011Z,0
2017-06-28T00:59:02.689Z,0
2017-06-28T01:00:02.628Z,0
2017-06-28T01:01:02.922Z,0
2017-06-28T01:02:02.288Z,0
2017-06-28T01:03:02.598Z,0
2017-06-28T01:04:02.583Z,0
2017-06-28T01:05:02.577Z,0
2017-06-28T01:06:02.570Z,0
2017-06-28T01:07:02.553Z,0
2017-06-28T01:08:02.549Z,0
2017-06-28T01:09:02.222Z,0
2017-06-28T01:10:02.221Z,0
2017-06-28T01:11:02.203Z,0
2017-06-28T01:12:02.515Z,0
2017-06-28T01:13:02.496Z,0
2017-06-28T01:14:02.805Z,0
2017-06-28T01:15:02.479Z,0
2017-06-28T01:16:02.191Z,0
2017-06-28T01:17:02.463Z,0
2017-06-28T01:18:02.138Z,0
2017-06-28T01:19:02.755Z,0
2017-06-28T01:20:02.113Z,0
2017-06-28T01:21:02.109Z,0
2017-06-28T01:22:02.409Z,0
2017-06-28T01:23:02.399Z,0
2017-06-28T01:24:02.160Z,0
2017-06-28T01:25:02.070Z,0
2017-06-28T01:26:02.371Z,0
2017-06-28T01:27:02.367Z,0
2017-06-28T01:28:02.353Z,0
2017-06-28T01:29:02.656Z,0
2017-06-28T01:30:02.339Z,0
2017-06-28T01:31:01.696Z,0
2017-06-28T01:32:01.688Z,0
2017-06-28T01:33:01.989Z,0
2017-06-28T01:34:02.013Z,0
2017-06-28T01:35:02.597Z,0
2017-06-28T01:36:01.964Z,0
2017-06-28T01:37:02.265Z,0
2017-06-28T01:38:02.264Z,0
2017-06-28T01:39:02.248Z,0
2017-06-28T01:40:02.233Z,0
2017-06-28T01:41:01.913Z,0
2017-06-28T01:42:01.901Z,0
2017-06-28T01:43:02.723Z,0
2017-06-28T01:44:02.509Z,0
2017-06-28T01:45:02.497Z,0
2017-06-28T01:46:02.487Z,0
2017-06-28T01:47:02.166Z,0
2017-06-28T01:48:02.167Z,0
2017-06-28T01:49:02.146Z,0
2017-06-28T01:50:02.455Z,0
2017-06-28T01:51:02.440Z,0
2017-06-28T01:52:02.120Z,0
2017-06-28T01:53:02.105Z,0
2017-06-28T01:54:02.414Z,0
2017-06-28T01:55:01.781Z,0
2017-06-28T01:56:02.079Z,0
2017-06-28T01:57:02.382Z,0
2017-06-28T01:58:02.374Z,0
2017-06-28T01:59:02.041Z,0
2017-06-28T02:00:02.047Z,0
2017-06-28T02:01:02.027Z,0
2017-06-28T02:02:02.018Z,0
2017-06-28T02:03:02.015Z,0
2017-06-28T02:04:01.998Z,0
2017-06-28T02:05:01.998Z,0
2017-06-28T02:06:01.984Z,0
2017-06-28T02:07:02.283Z,0
2017-06-28T02:08:01.333Z,0
2017-06-28T02:09:01.636Z,0
2017-06-28T02:10:01.625Z,0
2017-06-28T02:11:02.241Z,0
2017-06-28T02:12:01.603Z,0
2017-06-28T02:13:01.907Z,0
2017-06-28T02:14:01.586Z,0
2017-06-28T02:15:01.584Z,0
2017-06-28T02:16:01.880Z,0
2017-06-28T02:17:02.182Z,0
2017-06-28T02:18:01.868Z,0
2017-06-28T02:19:01.544Z,0
2017-06-28T02:20:01.846Z,0
2017-06-28T02:21:02.147Z,0
2017-06-28T02:22:01.822Z,0
2017-06-28T02:23:02.124Z,0
2017-06-28T02:24:01.807Z,0
2017-06-28T02:25:01.795Z,0
2017-06-28T02:26:02.125Z,0
2017-06-28T02:27:01.463Z,0
2017-06-28T02:28:02.076Z,0
2017-06-28T02:29:01.753Z,0
2017-06-28T02:30:01.742Z,0
2017-06-28T02:31:02.044Z,0
2017-06-28T02:32:01.726Z,0
2017-06-28T02:33:01.722Z,0
2017-06-28T02:34:02.023Z,0
2017-06-28T02:35:01.709Z,0
2017-06-28T02:36:01.737Z,0
2017-06-28T02:37:01.990Z,0
2017-06-28T02:38:01.664Z,0
2017-06-28T02:39:01.344Z,0
2017-06-28T02:40:01.024Z,4
2017-06-28T02:41:01.951Z,4
2017-06-28T02:42:01.006Z,4
2017-06-28T02:43:01.304Z,4
2017-06-28T02:44:01.919Z,0
2017-06-28T02:45:01.950Z,4
2017-06-28T02:46:01.280Z,4
2017-06-28T02:47:01.263Z,4
2017-06-28T02:48:01.250Z,8
2017-06-28T02:49:01.885Z,4
2017-06-28T02:50:01.866Z,8
2017-06-28T02:51:01.594Z,4
2017-06-28T02:52:01.530Z,8
2017-06-28T02:53:01.220Z,12
2017-06-28T02:54:01.204Z,8
2017-06-28T02:55:01.525Z,8
2017-06-28T02:56:01.495Z,8
2017-06-28T02:57:01.168Z,8
2017-06-28T02:58:01.156Z,8
2017-06-28T02:59:01.459Z,12
2017-06-28T03:00:01.774Z,12
2017-06-28T03:01:01.755Z,16
2017-06-28T03:02:01.754Z,16
2017-06-28T03:03:01.739Z,20
2017-06-28T03:04:01.101Z,16
2017-06-28T03:05:01.096Z,20
2017-06-28T03:06:01.705Z,20
2017-06-28T03:07:01.384Z,20
2017-06-28T03:08:01.687Z,16
2017-06-28T03:09:01.364Z,16
2017-06-28T03:10:01.361Z,12
2017-06-28T03:11:01.349Z,12
2017-06-28T03:12:01.022Z,12
2017-06-28T03:13:01.323Z,12
2017-06-28T03:14:01.316Z,8
2017-06-28T03:15:01.310Z,8
2017-06-28T03:16:00.989Z,12
2017-06-28T03:17:01.607Z,12
2017-06-28T03:18:01.598Z,8
2017-06-28T03:19:01.586Z,12
2017-06-28T03:20:00.942Z,8
2017-06-28T03:21:01.560Z,12
2017-06-28T03:22:01.236Z,12
2017-06-28T03:23:01.545Z,16
2017-06-28T03:24:00.909Z,16
2017-06-28T03:25:01.517Z,16
2017-06-28T03:26:00.890Z,20
2017-06-28T03:27:00.879Z,24
2017-06-28T03:28:01.206Z,28
2017-06-28T03:29:01.177Z,32
2017-06-28T03:30:00.857Z,40
2017-06-28T03:31:01.465Z,56
2017-06-28T03:32:00.833Z,68
2017-06-28T03:33:01.137Z,84
2017-06-28T03:34:01.133Z,108
2017-06-28T03:35:00.818Z,140
2017-06-28T03:36:01.418Z,184
2017-06-28T03:37:00.781Z,252
2017-06-28T03:38:01.126Z,332
2017-06-28T03:39:01.073Z,392
2017-06-28T03:40:01.066Z,440
2017-06-28T03:41:00.748Z,476
2017-06-28T03:42:00.740Z,512
2017-06-28T03:43:00.934Z,552
2017-06-28T03:44:01.034Z,596
2017-06-28T03:45:01.023Z,644
2017-06-28T03:46:01.322Z,700
2017-06-28T03:47:00.739Z,744
2017-06-28T03:48:00.679Z,772
2017-06-28T03:49:00.987Z,804
2017-06-28T03:50:01.294Z,836
2017-06-28T03:51:00.965Z,864
2017-06-28T03:52:00.957Z,880
2017-06-28T03:53:00.944Z,896
2017-06-28T03:54:00.939Z,912
2017-06-28T03:55:01.246Z,928
2017-06-28T03:56:01.232Z,936
2017-06-28T03:57:00.596Z,940
2017-06-28T03:58:00.898Z,944
2017-06-28T03:59:00.586Z,976
2017-06-28T04:00:00.566Z,1028
2017-06-28T04:01:00.247Z,1088
2017-06-28T04:02:00.867Z,1144
2017-06-28T04:03:00.550Z,1216
2017-06-28T04:04:00.540Z,1288
2017-06-28T04:05:00.567Z,1356
2017-06-28T04:06:00.823Z,1452
2017-06-28T04:07:00.498Z,1540
2017-06-28T04:08:00.490Z,1652
2017-06-28T04:09:00.488Z,1696
2017-06-28T04:10:00.789Z,1684
2017-06-28T04:11:00.827Z,1652
2017-06-28T04:12:00.767Z,1620
2017-06-28T04:13:00.447Z,1616
2017-06-28T04:14:01.071Z,1624
2017-06-28T04:15:00.440Z,1632
2017-06-28T04:16:00.465Z,1616
2017-06-28T04:17:00.096Z,1596
2017-06-28T04:18:00.720Z,1596
2017-06-28T04:19:00.702Z,1636
2017-06-28T04:20:00.073Z,1648
2017-06-28T04:21:00.063Z,1636
2017-06-28T04:22:00.987Z,1652
2017-06-28T04:23:00.351Z,1696
2017-06-28T04:24:00.668Z,1684
2017-06-28T04:25:00.341Z,1632
2017-06-28T04:26:00.338Z,1724
2017-06-28T04:27:00.966Z,1916
2017-06-28T04:28:00.365Z,2172
2017-06-28T04:29:00.935Z,2340
2017-06-28T04:30:00.924Z,2412
2017-06-28T04:31:00.911Z,2400
2017-06-28T04:32:00.591Z,2332
2017-06-28T04:33:00.585Z,2316
2017-06-28T04:34:00.569Z,2300
2017-06-28T04:35:00.563Z,2244
2017-06-28T04:36:00.871Z,2260
2017-06-28T04:37:00.233Z,2312
2017-06-28T04:38:00.541Z,2444
2017-06-28T04:39:00.220Z,2528
2017-06-28T04:40:00.521Z,2508
2017-06-28T04:41:00.509Z,2468
2017-06-28T04:42:00.835Z,2344
2017-06-28T04:43:00.493Z,2280
2017-06-28T04:44:00.483Z,2288
2017-06-28T04:45:00.479Z,2276
2017-06-28T04:46:00.476Z,2200
2017-06-28T04:47:00.774Z,2092
2017-06-28T04:48:00.143Z,2044
2017-06-28T04:49:00.441Z,1980
2017-06-28T04:50:00.433Z,1836
2017-06-28T04:51:00.737Z,1676
2017-06-28T04:52:00.729Z,1500
2017-06-28T04:53:00.410Z,1300
2017-06-28T04:54:00.089Z,1204
2017-06-28T04:55:00.073Z,1100
2017-06-28T04:56:00.380Z,1052
2017-06-28T04:57:00.381Z,1060
2017-06-28T04:58:00.368Z,1004
2017-06-28T04:59:00.392Z,980
2017-06-28T05:00:00.359Z,900
2017-06-28T05:01:00.652Z,804
2017-06-28T05:02:00.334Z,776
2017-06-28T05:03:00.319Z,820
2017-06-28T05:04:00.620Z,948
2017-06-28T05:05:00.616Z,1172
2017-06-28T05:06:00.297Z,1308
2017-06-28T05:07:00.295Z,1364
2017-06-28T05:07:59.966Z,1420
2017-06-28T05:09:00.312Z,1436
2017-06-28T05:09:59.956Z,1376
2017-06-28T05:10:59.951Z,1268
2017-06-28T05:12:00.246Z,1072
2017-06-28T05:13:00.236Z,876
2017-06-28T05:14:00.235Z,680
2017-06-28T05:14:59.904Z,556
2017-06-28T05:16:00.213Z,484
2017-06-28T05:16:59.891Z,484
2017-06-28T05:18:00.500Z,476
2017-06-28T05:19:00.182Z,440
2017-06-28T05:20:00.180Z,384
2017-06-28T05:21:00.476Z,336
2017-06-28T05:21:59.844Z,356
2017-06-28T05:23:00.458Z,480
2017-06-28T05:24:00.148Z,700
2017-06-28T05:24:59.827Z,1016
2017-06-28T05:25:59.813Z,1248
2017-06-28T05:27:00.122Z,1384
2017-06-28T05:28:00.113Z,1468
2017-06-28T05:29:00.096Z,1632
2017-06-28T05:30:00.405Z,1800
2017-06-28T05:31:00.383Z,1864
2017-06-28T05:32:00.382Z,1924
2017-06-28T05:33:00.379Z,2024
2017-06-28T05:33:59.429Z,2164
2017-06-28T05:34:59.737Z,2228
2017-06-28T05:35:59.726Z,2252
2017-06-28T05:37:00.027Z,2420
2017-06-28T05:37:59.713Z,2584
2017-06-28T05:39:00.013Z,2696
2017-06-28T05:39:59.695Z,2792
2017-06-28T05:40:59.674Z,2944
2017-06-28T05:42:00.298Z,3176
2017-06-28T05:43:00.176Z,3288
2017-06-28T05:43:59.964Z,3328
2017-06-28T05:44:59.963Z,3408
2017-06-28T05:46:00.265Z,3544
2017-06-28T05:47:00.251Z,3704
2017-06-28T05:47:59.936Z,3900
2017-06-28T05:48:59.609Z,4068
2017-06-28T05:49:59.910Z,4148
2017-06-28T05:50:59.901Z,4112
2017-06-28T05:51:59.583Z,3992
2017-06-28T05:53:00.210Z,3852
2017-06-28T05:53:59.568Z,3824
2017-06-28T05:54:59.565Z,3804
2017-06-28T05:56:00.179Z,3372
2017-06-28T05:56:59.227Z,2500
2017-06-28T05:58:00.157Z,2016
2017-06-28T05:59:00.149Z,2068
2017-06-28T05:59:59.826Z,2356
2017-06-28T06:00:59.827Z,2812
2017-06-28T06:01:59.498Z,3208
2017-06-28T06:02:59.194Z,3336
2017-06-28T06:03:59.802Z,3412
2017-06-28T06:04:59.793Z,3148
2017-06-28T06:05:59.784Z,3044
2017-06-28T06:06:59.457Z,3256
2017-06-28T06:07:59.772Z,4492
2017-06-28T06:09:00.082Z,4276
2017-06-28T06:09:59.441Z,4300
2017-06-28T06:10:59.112Z,4532
2017-06-28T06:11:59.732Z,4804
2017-06-28T06:12:59.408Z,4584
2017-06-28T06:13:59.403Z,4548
2017-06-28T06:14:59.398Z,4736
2017-06-28T06:15:59.703Z,4528
2017-06-28T06:16:59.700Z,4820
2017-06-28T06:17:59.388Z,4848
2017-06-28T06:18:59.992Z,4656
2017-06-28T06:19:59.674Z,4396
2017-06-28T06:20:59.346Z,4028
2017-06-28T06:21:59.654Z,3548
2017-06-28T06:22:59.746Z,3188
2017-06-28T06:23:59.334Z,3300
2017-06-28T06:24:59.319Z,3428
2017-06-28T06:25:59.620Z,3616
2017-06-28T06:26:59.299Z,3756
2017-06-28T06:27:59.290Z,3948
2017-06-28T06:28:59.604Z,4272
2017-06-28T06:29:59.589Z,4708
2017-06-28T06:30:59.588Z,4920
2017-06-28T06:31:59.581Z,4448
2017-06-28T06:32:59.938Z,4012
2017-06-28T06:33:59.877Z,3760
2017-06-28T06:34:59.872Z,3352
2017-06-28T06:35:59.242Z,3012
2017-06-28T06:36:59.566Z,2300
2017-06-28T06:37:59.226Z,1996
2017-06-28T06:38:59.518Z,1768
2017-06-28T06:39:59.193Z,1816
2017-06-28T06:40:59.505Z,1648
2017-06-28T06:41:59.815Z,1684
2017-06-28T06:42:59.187Z,1732
2017-06-28T06:43:59.801Z,2176
2017-06-28T06:44:58.846Z,2804
2017-06-28T06:45:59.464Z,3164
2017-06-28T06:46:59.471Z,3508
2017-06-28T06:47:59.784Z,4108
2017-06-28T06:48:59.134Z,5088
2017-06-28T06:49:59.751Z,4928
2017-06-28T06:50:59.116Z,5576
2017-06-28T06:51:59.733Z,6720
2017-06-28T06:52:59.751Z,7296
2017-06-28T06:53:59.089Z,7184
2017-06-28T06:54:59.401Z,7376
2017-06-28T06:55:59.079Z,7888
2017-06-28T06:56:59.069Z,7980
2017-06-28T06:57:59.690Z,8008
2017-06-28T06:58:59.057Z,8172
2017-06-28T06:59:59.045Z,8432
2017-06-28T07:00:59.358Z,8732
2017-06-28T07:01:59.036Z,8904
2017-06-28T07:02:59.337Z,8720
2017-06-28T07:03:59.340Z,8372
2017-06-28T07:04:59.635Z,8156
2017-06-28T07:05:59.640Z,8232
2017-06-28T07:06:59.321Z,8244
2017-06-28T07:07:59.612Z,8180
2017-06-28T07:08:58.981Z,8148
2017-06-28T07:09:58.969Z,7948
2017-06-28T07:10:58.964Z,8048
2017-06-28T07:11:58.644Z,8056
2017-06-28T07:12:59.583Z,8360
2017-06-28T07:13:59.583Z,8160
2017-06-28T07:14:58.632Z,8320
2017-06-28T07:15:59.249Z,8396
2017-06-28T07:16:59.556Z,8664
2017-06-28T07:17:59.239Z,8884
2017-06-28T07:18:58.920Z,8880
2017-06-28T07:19:58.943Z,8572
2017-06-28T07:20:59.532Z,8564
2017-06-28T07:21:59.210Z,8660
2017-06-28T07:22:59.517Z,8828
2017-06-28T07:23:59.200Z,8860
2017-06-28T07:24:59.195Z,9020
2017-06-28T07:25:58.869Z,9048
2017-06-28T07:26:59.203Z,8828
2017-06-28T07:27:59.181Z,8756
2017-06-28T07:28:59.181Z,8816
2017-06-28T07:29:59.165Z,8344
2017-06-28T07:30:59.162Z,8260
2017-06-28T07:31:58.857Z,8080
2017-06-28T07:32:58.842Z,7844
2017-06-28T07:33:59.146Z,7820
2017-06-28T07:34:59.456Z,7948
2017-06-28T07:35:59.439Z,8336
2017-06-28T07:36:59.437Z,8392
2017-06-28T07:37:59.123Z,8044
2017-06-28T07:38:59.124Z,8036
2017-06-28T07:39:59.422Z,7608
2017-06-28T07:40:58.786Z,7116
2017-06-28T07:41:58.465Z,6604
2017-06-28T07:42:59.494Z,6500
2017-06-28T07:43:59.398Z,6472
2017-06-28T07:44:58.765Z,6244
2017-06-28T07:45:58.782Z,5508
2017-06-28T07:46:58.747Z,4896
2017-06-28T07:47:59.064Z,4608
2017-06-28T07:48:59.361Z,4772
2017-06-28T07:49:59.051Z,5096
2017-06-28T07:50:59.048Z,5448
2017-06-28T07:51:58.725Z,5988
2017-06-28T07:52:59.349Z,6180
2017-06-28T07:53:59.044Z,6232
2017-06-28T07:54:58.711Z,6188
2017-06-28T07:55:58.704Z,6032
2017-06-28T07:56:59.010Z,5912
2017-06-28T07:57:59.335Z,5696
2017-06-28T07:58:58.998Z,5368
2017-06-28T07:59:58.371Z,5136
2017-06-28T08:00:58.986Z,5024
2017-06-28T08:01:58.982Z,5080
2017-06-28T08:02:58.656Z,5024
2017-06-28T08:03:58.971Z,4892
2017-06-28T08:04:59.282Z,4636
2017-06-28T08:05:58.331Z,4464
2017-06-28T08:06:59.267Z,4488
2017-06-28T08:07:58.637Z,4732
2017-06-28T08:08:58.628Z,5044
2017-06-28T08:09:58.925Z,5392
2017-06-28T08:10:58.928Z,5684
2017-06-28T08:11:58.608Z,5668
2017-06-28T08:12:58.945Z,5592
2017-06-28T08:13:58.967Z,5644
2017-06-28T08:14:59.221Z,5844
2017-06-28T08:15:59.210Z,6132
2017-06-28T08:16:58.897Z,6364
2017-06-28T08:17:59.211Z,6500
2017-06-28T08:18:58.884Z,6968
2017-06-28T08:19:58.877Z,7556
2017-06-28T08:20:58.868Z,8148
2017-06-28T08:21:58.236Z,8560
2017-06-28T08:22:58.856Z,8760
2017-06-28T08:23:58.846Z,8948
2017-06-28T08:24:58.845Z,9380
2017-06-28T08:25:58.526Z,10080
2017-06-28T08:26:59.152Z,10592
2017-06-28T08:27:58.858Z,10928
2017-06-28T08:28:58.821Z,11172
2017-06-28T08:29:58.832Z,10904
2017-06-28T08:30:59.126Z,10540
2017-06-28T08:31:58.809Z,10624
2017-06-28T08:32:59.138Z,10988
2017-06-28T08:33:58.794Z,11432
2017-06-28T08:34:58.796Z,11880
2017-06-28T08:35:58.471Z,12088
2017-06-28T08:36:58.786Z,12280
2017-06-28T08:37:58.470Z,13540
2017-06-28T08:38:59.079Z,12960
2017-06-28T08:39:58.766Z,12736
2017-06-28T08:40:58.440Z,13052
2017-06-28T08:41:58.440Z,15100
2017-06-28T08:42:59.059Z,14220
2017-06-28T08:43:59.055Z,13884
2017-06-28T08:44:58.747Z,12996
2017-06-28T08:45:58.735Z,31360
2017-06-28T08:46:58.460Z,24896
2017-06-28T08:47:58.407Z,14760
2017-06-28T08:48:58.719Z,13060
2017-06-28T08:49:59.050Z,12856
2017-06-28T08:50:58.705Z,15116
2017-06-28T08:51:58.720Z,16376
2017-06-28T08:52:58.709Z,18656
2017-06-28T08:53:58.700Z,23104
2017-06-28T08:54:58.377Z,22624
2017-06-28T08:55:58.686Z,19904
2017-06-28T08:56:59.000Z,16076
2017-06-28T08:57:58.364Z,15040
2017-06-28T08:58:58.677Z,19616
2017-06-28T08:59:58.668Z,17568
2017-06-28T09:00:58.975Z,17632
2017-06-28T09:01:58.665Z,18048
2017-06-28T09:02:58.032Z,16368
2017-06-28T09:03:58.968Z,13972
2017-06-28T09:04:58.023Z,13328
2017-06-28T09:05:58.331Z,14492
2017-06-28T09:06:58.954Z,14068
2017-06-28T09:07:58.640Z,14380
2017-06-28T09:08:58.643Z,13848
2017-06-28T09:09:58.633Z,13224
2017-06-28T09:10:58.620Z,13132
2017-06-28T09:11:58.625Z,12176
2017-06-28T09:12:58.940Z,11964
2017-06-28T09:13:58.617Z,12708
2017-06-28T09:14:58.614Z,13588
2017-06-28T09:15:58.922Z,12136
2017-06-28T09:16:58.294Z,12456
2017-06-28T09:17:58.596Z,12812
2017-06-28T09:18:58.594Z,13336
2017-06-28T09:19:58.904Z,13376
2017-06-28T09:20:58.897Z,13708
2017-06-28T09:21:58.579Z,14452
2017-06-28T09:22:58.590Z,15016
2017-06-28T09:23:58.579Z,13924
2017-06-28T09:24:58.891Z,13800
2017-06-28T09:25:58.885Z,13088
2017-06-28T09:26:58.258Z,13396
2017-06-28T09:27:58.875Z,14552
2017-06-28T09:28:58.263Z,14064
2017-06-28T09:29:58.553Z,16864
2017-06-28T09:30:58.547Z,19296
2017-06-28T09:31:58.549Z,14356
2017-06-28T09:32:58.859Z,15196
2017-06-28T09:33:58.248Z,13496
2017-06-28T09:34:58.534Z,11228
2017-06-28T09:35:58.834Z,12228
2017-06-28T09:36:58.837Z,8448
2017-06-28T09:37:58.525Z,6212
2017-06-28T09:38:58.828Z,5544
2017-06-28T09:39:58.831Z,5372
2017-06-28T09:40:58.197Z,5748
2017-06-28T09:41:58.828Z,5992
2017-06-28T09:42:58.388Z,6300
2017-06-28T09:43:58.815Z,6848
2017-06-28T09:44:58.181Z,6780
2017-06-28T09:45:58.171Z,6284
2017-06-28T09:46:58.167Z,6104
2017-06-28T09:47:57.851Z,5968
2017-06-28T09:48:58.476Z,5440
2017-06-28T09:49:58.164Z,5164
2017-06-28T09:50:58.151Z,5792
2017-06-28T09:51:58.150Z,6804
2017-06-28T09:52:58.458Z,7332
2017-06-28T09:53:58.448Z,8228
2017-06-28T09:54:58.444Z,8404
2017-06-28T09:55:58.448Z,8184
2017-06-28T09:56:58.453Z,8248
2017-06-28T09:57:58.113Z,8192
2017-06-28T09:58:58.109Z,7600
2017-06-28T09:59:58.424Z,6312
2017-06-28T10:00:58.417Z,5304
2017-06-28T10:01:58.417Z,4936
2017-06-28T10:02:58.099Z,4380
2017-06-28T10:03:58.714Z,3672
2017-06-28T10:04:58.391Z,3360
2017-06-28T10:05:58.083Z,3036
2017-06-28T10:06:58.700Z,2676
2017-06-28T10:07:58.397Z,2640
2017-06-28T10:08:58.063Z,2416
2017-06-28T10:09:58.055Z,2516
2017-06-28T10:10:57.741Z,3168
2017-06-28T10:11:58.357Z,4440
2017-06-28T10:12:58.042Z,5752
2017-06-28T10:13:58.664Z,7464
2017-06-28T10:14:58.337Z,8332
2017-06-28T10:15:58.641Z,8904
2017-06-28T10:16:58.327Z,9148
2017-06-28T10:17:58.643Z,8696
2017-06-28T10:18:58.011Z,8340
2017-06-28T10:19:58.628Z,8092
2017-06-28T10:20:58.308Z,7880
2017-06-28T10:21:57.997Z,7672
2017-06-28T10:22:57.668Z,7488
2017-06-28T10:23:58.599Z,7312
2017-06-28T10:24:57.964Z,7020
2017-06-28T10:25:57.964Z,7236
2017-06-28T10:26:57.669Z,6904
2017-06-28T10:27:58.266Z,6540
2017-06-28T10:28:57.645Z,6440
2017-06-28T10:29:58.576Z,6368
2017-06-28T10:30:57.934Z,6340
2017-06-28T10:31:57.613Z,6312
2017-06-28T10:32:57.623Z,7128
2017-06-28T10:33:57.925Z,8096
2017-06-28T10:34:57.944Z,8840
2017-06-28T10:35:58.538Z,9392
2017-06-28T10:36:58.523Z,9596
2017-06-28T10:37:58.211Z,9104
2017-06-28T10:38:57.898Z,8404
2017-06-28T10:39:57.885Z,8100
2017-06-28T10:40:58.501Z,8312
2017-06-28T10:41:58.226Z,8724
2017-06-28T10:42:58.495Z,9300
2017-06-28T10:43:58.485Z,9896
2017-06-28T10:44:58.166Z,10364
2017-06-28T10:45:57.854Z,10744
2017-06-28T10:46:57.525Z,11176
2017-06-28T10:47:58.154Z,11360
2017-06-28T10:48:58.137Z,11380
2017-06-28T10:49:58.465Z,11264
2017-06-28T10:50:58.133Z,11204
2017-06-28T10:51:58.117Z,11140
2017-06-28T10:52:58.435Z,10972
2017-06-28T10:53:58.108Z,10728
2017-06-28T10:54:58.103Z,10476
2017-06-28T10:55:58.102Z,10328
2017-06-28T10:56:58.405Z,10360
2017-06-28T10:57:57.774Z,10484
2017-06-28T10:58:57.772Z,10584
2017-06-28T10:59:57.766Z,10688
2017-06-28T11:00:58.380Z,10888
2017-06-28T11:01:58.380Z,11028
2017-06-28T11:02:57.749Z,10972
2017-06-28T11:03:57.749Z,10732
2017-06-28T11:04:58.363Z,10524
2017-06-28T11:05:57.729Z,10424
2017-06-28T11:06:57.726Z,10456
2017-06-28T11:07:58.033Z,10600
2017-06-28T11:08:57.712Z,10640
2017-06-28T11:09:58.025Z,10668
2017-06-28T11:10:58.344Z,10704
2017-06-28T11:11:57.700Z,10812
2017-06-28T11:12:58.013Z,10872
2017-06-28T11:13:58.005Z,10964
2017-06-28T11:14:58.003Z,10764
2017-06-28T11:15:57.413Z,10664
2017-06-28T11:16:57.725Z,10408
2017-06-28T11:17:57.668Z,10180
2017-06-28T11:18:57.973Z,10232
2017-06-28T11:19:57.656Z,10312
2017-06-28T11:20:57.963Z,10584
2017-06-28T11:21:57.645Z,10788
2017-06-28T11:22:58.264Z,11160
2017-06-28T11:23:57.643Z,11748
2017-06-28T11:24:57.629Z,12320
2017-06-28T11:25:57.938Z,12464
2017-06-28T11:26:57.929Z,12720
2017-06-28T11:27:58.260Z,12268
2017-06-28T11:28:57.930Z,13184
2017-06-28T11:29:57.920Z,12656
2017-06-28T11:30:58.226Z,11892
2017-06-28T11:31:57.584Z,11412
2017-06-28T11:32:58.216Z,10980
2017-06-28T11:33:57.897Z,10824
2017-06-28T11:34:57.574Z,10656
2017-06-28T11:35:57.883Z,9600
2017-06-28T11:36:57.573Z,9116
2017-06-28T11:37:57.875Z,10184
2017-06-28T11:38:57.870Z,9128
2017-06-28T11:39:57.874Z,8860
2017-06-28T11:40:58.177Z,7788
2017-06-28T11:41:57.642Z,6952
2017-06-28T11:42:57.856Z,5532
2017-06-28T11:43:58.048Z,6324
2017-06-28T11:44:57.215Z,7520
2017-06-28T11:45:57.518Z,7608
2017-06-28T11:46:57.831Z,8012
2017-06-28T11:47:57.819Z,7384
2017-06-28T11:48:57.815Z,7136
2017-06-28T11:49:57.814Z,7448
2017-06-28T11:50:57.814Z,7548
2017-06-28T11:51:57.849Z,8220
2017-06-28T11:52:57.832Z,9096
2017-06-28T11:53:58.116Z,9288
2017-06-28T11:54:57.483Z,9328
2017-06-28T11:55:57.501Z,9316
2017-06-28T11:56:58.096Z,9376
2017-06-28T11:57:57.783Z,9416
2017-06-28T11:58:57.770Z,9468
2017-06-28T11:59:57.772Z,9664
2017-06-28T12:00:58.075Z,9752
2017-06-28T12:01:57.745Z,9736
2017-06-28T12:02:57.746Z,9716
2017-06-28T12:03:57.426Z,9636
2017-06-28T12:04:57.107Z,9608
2017-06-28T12:05:57.729Z,9328
2017-06-28T12:06:57.723Z,8872
2017-06-28T12:07:58.036Z,8320
2017-06-28T12:08:57.119Z,7744
2017-06-28T12:09:57.438Z,7340
2017-06-28T12:10:57.698Z,7076
2017-06-28T12:11:57.377Z,7032
2017-06-28T12:12:57.378Z,7220
2017-06-28T12:13:58.001Z,7336
2017-06-28T12:14:57.668Z,7208
2017-06-28T12:15:57.672Z,7100
2017-06-28T12:16:57.353Z,7100
2017-06-28T12:17:57.979Z,6956
2017-06-28T12:18:57.341Z,6456
2017-06-28T12:19:57.033Z,6156
2017-06-28T12:20:57.648Z,6324
2017-06-28T12:21:57.013Z,6556
2017-06-28T12:22:57.634Z,6620
2017-06-28T12:23:57.316Z,6504
2017-06-28T12:24:57.308Z,6456
2017-06-28T12:25:57.297Z,6316
2017-06-28T12:26:57.295Z,6124
2017-06-28T12:27:57.297Z,5928
2017-06-28T12:28:57.600Z,5744
2017-06-28T12:29:57.292Z,5508
2017-06-28T12:30:57.586Z,5320
2017-06-28T12:31:57.575Z,5348
2017-06-28T12:32:57.580Z,5436
2017-06-28T12:33:57.568Z,5440
2017-06-28T12:34:57.250Z,5440
2017-06-28T12:35:57.244Z,5704
2017-06-28T12:36:57.863Z,5724
2017-06-28T12:37:57.548Z,5696
2017-06-28T12:38:57.541Z,5740
2017-06-28T12:39:57.532Z,6064
2017-06-28T12:40:57.212Z,6452
2017-06-28T12:41:57.518Z,6640
2017-06-28T12:42:56.890Z,6196
2017-06-28T12:43:57.882Z,5204
2017-06-28T12:44:57.502Z,4488
2017-06-28T12:45:57.495Z,3804
2017-06-28T12:46:57.797Z,3452
2017-06-28T12:47:57.487Z,3272
2017-06-28T12:48:56.855Z,3128
2017-06-28T12:49:57.699Z,3048
2017-06-28T12:50:57.814Z,3160
2017-06-28T12:51:57.474Z,3488
2017-06-28T12:52:57.462Z,3944
2017-06-28T12:53:57.449Z,4672
2017-06-28T12:54:57.444Z,5548
2017-06-28T12:55:57.438Z,6840
2017-06-28T12:56:57.763Z,8712
2017-06-28T12:57:57.750Z,10932
2017-06-28T12:58:57.101Z,12204
2017-06-28T12:59:57.410Z,13352
2017-06-28T13:00:57.764Z,16040
2017-06-28T13:01:57.439Z,15488
2017-06-28T13:02:56.774Z,14400
2017-06-28T13:03:57.700Z,14528
2017-06-28T13:04:57.700Z,14408
2017-06-28T13:05:57.369Z,13864
2017-06-28T13:06:57.389Z,15252
2017-06-28T13:07:57.365Z,16800
2017-06-28T13:08:57.047Z,17312
2017-06-28T13:09:57.357Z,17504
2017-06-28T13:10:57.038Z,21184
2017-06-28T13:11:57.660Z,21696
2017-06-28T13:12:57.651Z,24736
2017-06-28T13:13:57.335Z,22304
2017-06-28T13:14:57.012Z,21504
2017-06-28T13:15:57.679Z,21152
2017-06-28T13:16:57.001Z,20480
2017-06-28T13:17:57.314Z,20544
2017-06-28T13:18:57.306Z,21056
2017-06-28T13:19:56.991Z,23552
2017-06-28T13:20:57.339Z,29280
2017-06-28T13:21:56.977Z,34112
2017-06-28T13:22:57.302Z,34688
2017-06-28T13:23:57.283Z,26464
2017-06-28T13:24:57.275Z,44096
2017-06-28T13:25:57.275Z,43584
2017-06-28T13:26:57.269Z,33280
2017-06-28T13:27:56.959Z,37088
2017-06-28T13:28:57.280Z,31552
2017-06-28T13:29:57.267Z,28256
2017-06-28T13:30:57.258Z,46368
2017-06-28T13:31:57.566Z,44416
2017-06-28T13:32:56.967Z,33856
2017-06-28T13:33:57.559Z,33600